Terminal Aerodrome Forecast
Issued by NWS Wilmington, OH

Current Version | Previous Version | Graphics & Text | Print | Product List | Glossary On
Versions: 1 2 3 4 5 6 7 8 9 10 11 12 13 14 15 16
605
FTUS41 KILN 122332
TAFILN
TAF
KILN 122332Z 1300/1324 28012G22KT 4SM -SHSN OVC020
      TEMPO 1300/1302 29016G30KT 1SM -SHSN
     FM130300 32014G24KT P6SM -SHSN BKN020
     FM130800 34012G22KT P6SM -SHSN BKN020
     FM131100 34010KT P6SM VCSH BKN020
     FM131700 32012KT P6SM VCSH BKN020=

USA.gov is the U.S. government's official web portal to all federal, state and local government web resources and services.